TAF and METAR

Could not understand the following METAR

YTEF 230300Z AUTO 04011KT 9999 // NCD 39/14 Q1011
No TAF available for Telfer Airport
Telfer Airport in Australia at 296m

Latest 5 airports